Estación Meteorológica Peña el Pijo (Robertgarden) [ 05/25/18 12:50:23 CEST ]

Fecha Hora Presion(HPa) Temp (°C) Humedad % Rocio (°C) Viento ( m/s) Direccion Lluvia 1Hora(mm) Lluvia 24H(mm) LLuvia Total(mm)
2018-Mar-16 01:01:47 997.100 3.9 81 1.0       1.03 148.66
2018-Mar-16 02:01:42 997.100 4.1 82 1.3       1.03 148.66
2018-Mar-16 03:01:45 996.900 3.9 83 1.3     0.51 1.55 149.18
2018-Mar-16 04:01:44 996.600 3.4 83 0.8       1.55 149.18
2018-Mar-16 05:01:37 995.900 3.2 83 0.6       1.55 149.18
2018-Mar-16 06:01:45 995.900 3.3 84 0.8       1.55 149.18
2018-Mar-16 07:01:47 996.100 3.1 83 0.5       1.55 149.18
2018-Mar-16 08:01:51 996.600 2.2 84 -0.3       1.03 149.18
2018-Mar-16 09:01:50 997.100 3.5 85 1.2       1.03 149.18
2018-Mar-16 10:02:03 997.400 5.3 83 2.6       1.03 149.18
2018-Mar-16 11:01:46 997.500 7.4 76 3.4       1.03 149.18
2018-Mar-16 12:01:43 997.200 7.9 64 1.5       1.03 149.18
2018-Mar-16 13:01:49 996.400 10.3 54 1.4       1.03 149.18
2018-Mar-16 14:01:51 995.500 10.1 50 0.2 2.0 NNW   1.03 149.18
2018-Mar-16 15:01:33 995.200 10.9 46 -0.3 1.6 SSW   1.03 149.18
2018-Mar-16 16:01:38 996.400 6.4 64 0.1       1.03 149.18
2018-Mar-16 17:01:48 996.200 5.8 73 1.3 2.0 NW 0.51 1.55 149.70
2018-Mar-16 18:01:56 996.300 6.4 68 0.9       1.55 149.70
2018-Mar-16 19:01:37 996.300 4.6 70 -0.4       1.55 149.70
2018-Mar-16 20:01:44 997.100 3.5 72 -1.1       1.55 149.70
2018-Mar-16 21:01:44 997.700 3.8 74 -0.4       1.55 149.70
2018-Mar-16 22:01:47 997.500 2.6 77 -1.0       1.55 149.70
2018-Mar-16 23:01:42 996.900 3.7 75 -0.3       1.03 149.70

Temperatura Máxima:10°    Temperatura Mínima:
Presión Máxima:997.700 Hpa    Presión Mínima:995.200 Hpa


Volver